Terminal Aerodrome Forecast
Issued by NWS

Home | Current Version | Previous Version | Text Only | Print | Product List | Glossary On
Versions: 1 2 3 4 5 6 7 8 9 10 11 12 13 14 15
000
FTUS44 KOHX 182300
TAFCKV
TAF
KCKV 182321Z 1900/1924 06005KT P6SM BKN060 OVC080
     FM190600 36005KT P6SM SCT250
     FM191400 05011G20KT P6SM SCT050=

USA.gov is the U.S. government's official web portal to all federal, state and local government web resources and services.